To NAV CANADA Home Page Login to a new session Search on AWWS site Disclaimer Vers la page française équivalente Tips FAQ What's new on the site To the Forecasts and Observations / NOTAM section To "File a Flight Plan" website Publications and other links Update of the User's profile FIC Telephone Numbers My Weather Data Folder Route Weather Data Regional Weather Data Local Weather Data To the Forecasts and Observations / NOTAM section
Request Generated 10/19/2018 at 15:33:03 UTC . Weather information available at that time is displayed.

METAR/TAF

VAL-DOR/QC    (show WxCam)

METAR CYVO 191500Z 19008KT 180V240 15SM SCT180 BKN240 08/04 A2964 RMK AC3CI2 SLP052=
METAR CYVO 191400Z 20011G19KT 15SM SCT170 BKN200 06/03 A2967 RMK AC4CI1 SLP065=
METAR CYVO 191300Z 19010KT 15SM FEW190 SCT220 04/02 A2968 RMK AC2CI1 SLP071=

TAF CYVO 191138Z 1912/1924 18010KT P6SM FEW050 SCT220
BECMG 1913/1915 22012G22KT
FM191700 22012G22KT P6SM BKN025 OVC090 TEMPO 1917/1920 4SM -SHRA
BR BKN015 OVC070
FM192000 22015G25KT 6SM -RA BR OVC015 TEMPO 1920/1924 3SM -RA BR
OVC008
RMK NXT FCST BY 191800Z=
Your time UTC time
Weather data provided by Environment Canada and NAV CANADA